createdAt,value
2023-03-20T00:03:56.276Z,2.60
2023-03-20T00:08:59.737Z,2.77
2023-03-20T00:14:13.773Z,4.10
2023-03-20T00:19:20.807Z,3.40
2023-03-20T00:24:24.717Z,4.03
2023-03-20T00:29:30.897Z,3.33
2023-03-20T00:34:35.854Z,2.93
2023-03-20T00:39:38.991Z,3.70
2023-03-20T00:44:46.868Z,2.70
2023-03-20T00:49:54.302Z,3.70
2023-03-20T00:54:57.437Z,2.80
2023-03-20T01:00:05.139Z,3.40
2023-03-20T01:05:10.067Z,3.10
2023-03-20T01:10:13.988Z,3.80
2023-03-20T01:15:21.745Z,3.73
2023-03-20T01:20:28.500Z,3.70
2023-03-20T01:25:31.713Z,4.00
2023-03-20T01:30:35.091Z,3.90
2023-03-20T01:35:39.545Z,3.50
2023-03-20T01:40:50.180Z,3.70
2023-03-20T01:46:00.427Z,3.30
2023-03-20T01:51:05.523Z,3.80
2023-03-20T01:56:09.199Z,4.43
2023-03-20T02:01:14.773Z,4.40
2023-03-20T02:06:22.363Z,4.23
2023-03-20T02:11:26.529Z,3.57
2023-03-20T02:16:29.704Z,4.13
2023-03-20T02:22:15.803Z,4.47
2023-03-20T02:27:31.364Z,3.93
2023-03-20T02:33:24.373Z,3.80
2023-03-20T02:38:46.064Z,4.10
2023-03-20T02:43:57.080Z,4.30
2023-03-20T02:49:06.733Z,4.30
2023-03-20T02:54:23.028Z,4.03
2023-03-20T02:59:33.185Z,3.93
2023-03-20T03:04:39.238Z,4.50
2023-03-20T03:09:49.310Z,4.63
2023-03-20T03:14:55.554Z,4.57
2023-03-20T03:20:04.572Z,4.60
2023-03-20T03:25:13.655Z,4.80
2023-03-20T03:30:21.223Z,4.00
2023-03-20T03:35:24.712Z,3.70
2023-03-20T03:40:37.158Z,4.17
2023-03-20T03:45:46.185Z,3.93
2023-03-20T03:50:52.312Z,4.23
2023-03-20T03:56:01.780Z,4.53
2023-03-20T04:01:06.795Z,3.50
2023-03-20T04:06:12.852Z,3.67
2023-03-20T04:11:18.857Z,4.93
2023-03-20T04:16:23.949Z,3.87
2023-03-20T04:21:27.201Z,3.80
2023-03-20T04:26:32.034Z,3.80
2023-03-20T04:31:35.128Z,3.90
2023-03-20T04:36:38.228Z,4.13
2023-03-20T04:41:42.682Z,3.23
2023-03-20T04:46:45.867Z,3.87
2023-03-20T04:51:49.111Z,4.00
2023-03-20T04:56:53.572Z,3.80
2023-03-20T05:01:56.767Z,3.97
2023-03-20T05:06:59.824Z,4.17
2023-03-20T05:12:04.422Z,4.03
2023-03-20T05:17:07.524Z,4.60
2023-03-20T05:22:10.587Z,5.40
2023-03-20T05:27:16.297Z,4.40
2023-03-20T05:32:19.801Z,4.57
2023-03-20T05:37:22.873Z,4.47
2023-03-20T05:42:27.784Z,6.73
2023-03-20T05:47:31.226Z,8.13
2023-03-20T05:52:34.380Z,6.37
2023-03-20T05:57:38.833Z,5.00
2023-03-20T06:02:42.082Z,9.53
2023-03-20T06:07:45.327Z,6.57
2023-03-20T06:12:50.149Z,5.90
2023-03-20T06:17:53.237Z,9.83
2023-03-20T06:22:56.572Z,9.53
2023-03-20T06:28:01.069Z,6.27
2023-03-20T06:33:04.712Z,7.70
2023-03-20T06:38:07.948Z,8.67
2023-03-20T06:43:12.773Z,7.10
2023-03-20T06:48:16.610Z,6.83
2023-03-20T06:53:20.180Z,6.93
2023-03-20T06:58:24.741Z,6.43
2023-03-20T07:03:28.514Z,6.07
2023-03-20T07:08:34.666Z,6.23
2023-03-20T07:13:39.705Z,6.53
2023-03-20T07:18:42.946Z,5.80
2023-03-20T07:23:46.577Z,6.73
2023-03-20T07:28:51.117Z,6.13
2023-03-20T07:33:54.607Z,5.93
2023-03-20T07:38:57.707Z,5.10
2023-03-20T07:44:02.186Z,5.47
2023-03-20T07:49:05.823Z,5.03
2023-03-20T07:54:08.906Z,4.67
2023-03-20T07:59:13.624Z,4.60
2023-03-20T08:04:19.517Z,6.97
2023-03-20T08:09:22.855Z,5.83
2023-03-20T08:14:27.332Z,5.23
2023-03-20T08:19:30.496Z,5.00
2023-03-20T08:24:33.993Z,5.17
2023-03-20T08:29:38.651Z,5.40
2023-03-20T08:34:41.741Z,4.80
2023-03-20T08:39:44.912Z,4.77
2023-03-20T08:44:49.407Z,4.93
2023-03-20T08:49:52.925Z,5.00
2023-03-20T08:54:56.103Z,4.60
2023-03-20T09:00:01.652Z,4.67
2023-03-20T09:05:05.155Z,5.67
2023-03-20T09:10:09.523Z,4.10
2023-03-20T09:15:14.235Z,4.50
2023-03-20T09:20:17.659Z,3.70
2023-03-20T09:25:20.837Z,3.10
2023-03-20T09:30:25.968Z,2.83
2023-03-20T09:35:29.212Z,2.73
2023-03-20T09:40:37.867Z,3.00
2023-03-20T09:45:54.410Z,3.10
2023-03-20T09:51:02.680Z,2.83
2023-03-20T09:56:10.798Z,2.23
2023-03-20T10:01:16.839Z,2.60
2023-03-20T10:06:20.265Z,2.40
2023-03-20T10:11:42.341Z,4.53
2023-03-20T10:17:01.042Z,3.13
2023-03-20T10:22:16.248Z,2.60
2023-03-20T10:27:26.267Z,2.50
2023-03-20T10:32:37.850Z,2.60
2023-03-20T10:37:58.388Z,2.00
2023-03-20T10:43:05.277Z,1.47
2023-03-20T10:48:17.889Z,1.50
2023-03-20T10:53:32.421Z,1.43
2023-03-20T10:58:41.409Z,1.80
2023-03-20T11:03:46.110Z,1.70
2023-03-20T11:08:52.145Z,1.50
2023-03-20T11:13:56.511Z,1.73
2023-03-20T11:19:07.475Z,1.53
2023-03-20T11:24:25.327Z,2.70
2023-03-20T11:29:35.174Z,1.67
2023-03-20T11:34:43.325Z,2.57
2023-03-20T11:39:58.917Z,2.23
2023-03-20T11:45:04.904Z,1.60
2023-03-20T11:50:31.420Z,1.60
2023-03-20T11:55:35.891Z,1.50
2023-03-20T12:00:42.481Z,1.50
2023-03-20T12:05:47.509Z,1.43
2023-03-20T12:10:55.445Z,1.70
2023-03-20T12:16:03.005Z,1.60
2023-03-20T12:21:11.980Z,1.50
2023-03-20T12:26:19.492Z,1.33
2023-03-20T12:31:27.678Z,1.30
2023-03-20T12:36:35.056Z,1.13
2023-03-20T12:41:46.917Z,1.07
2023-03-20T12:46:55.638Z,1.00
2023-03-20T12:52:11.808Z,1.07
2023-03-20T12:57:25.097Z,0.83
2023-03-20T13:02:42.312Z,1.20
2023-03-20T13:08:07.931Z,0.93
2023-03-20T13:13:22.471Z,1.07
2023-03-20T13:18:36.446Z,0.90
2023-03-20T13:23:47.228Z,1.40
2023-03-20T13:29:01.460Z,0.90
2023-03-20T13:34:14.098Z,1.10
2023-03-20T13:39:23.871Z,1.20
2023-03-20T13:44:30.352Z,1.27
2023-03-20T13:49:38.503Z,1.00
2023-03-20T13:54:59.152Z,1.17
2023-03-20T14:00:18.370Z,1.03
2023-03-20T14:05:23.468Z,1.03
2023-03-20T14:10:40.879Z,1.30
2023-03-20T14:15:51.702Z,1.20
2023-03-20T14:21:00.819Z,0.90
2023-03-20T14:26:11.595Z,0.80
2023-03-20T14:31:23.791Z,1.00
2023-03-20T14:36:30.293Z,1.10
2023-03-20T14:41:43.025Z,1.00
2023-03-20T14:47:04.579Z,0.90
2023-03-20T14:52:24.241Z,1.30
2023-03-20T14:57:48.734Z,1.07
2023-03-20T15:03:04.846Z,1.30
2023-03-20T15:08:10.646Z,1.40
2023-03-20T15:13:17.136Z,1.30
2023-03-20T15:18:22.597Z,1.13
2023-03-20T15:23:27.106Z,1.10
2023-03-20T15:28:32.878Z,1.43
2023-03-20T15:33:41.857Z,1.03
2023-03-20T15:38:47.993Z,1.00
2023-03-20T15:43:52.449Z,1.10
2023-03-20T15:48:56.074Z,1.10
2023-03-20T15:53:59.251Z,1.30
2023-03-20T15:59:04.037Z,1.70
2023-03-20T16:04:07.423Z,1.70
2023-03-20T16:09:15.017Z,1.40
2023-03-20T16:14:24.905Z,1.77
2023-03-20T16:19:28.993Z,2.00
2023-03-20T16:24:36.428Z,2.37
2023-03-20T16:29:44.711Z,1.90
2023-03-20T16:34:51.995Z,2.90
2023-03-20T16:40:13.661Z,2.20
2023-03-20T16:45:25.343Z,3.53
2023-03-20T16:50:36.464Z,2.73
2023-03-20T16:55:45.716Z,2.17
2023-03-20T17:00:53.570Z,2.57
2023-03-20T17:05:58.733Z,5.53
2023-03-20T17:11:06.716Z,2.10
2023-03-20T17:16:17.530Z,1.77
2023-03-20T17:21:20.798Z,2.00
2023-03-20T17:26:24.655Z,2.60
2023-03-20T17:31:29.379Z,2.50
2023-03-20T17:36:34.519Z,1.60
2023-03-20T17:41:37.763Z,3.43
2023-03-20T17:46:56.770Z,2.43
2023-03-20T17:52:00.717Z,3.20
2023-03-20T17:57:03.815Z,2.10
2023-03-20T18:02:08.360Z,3.00
2023-03-20T18:07:12.680Z,1.50
2023-03-20T18:12:18.390Z,1.60
2023-03-20T18:17:23.002Z,1.40
2023-03-20T18:22:26.125Z,1.30
2023-03-20T18:27:29.301Z,1.00
2023-03-20T18:32:33.953Z,1.13
2023-03-20T18:37:37.117Z,1.20
2023-03-20T18:42:40.266Z,1.50
2023-03-20T18:47:45.468Z,3.50
2023-03-20T18:52:48.685Z,3.37
2023-03-20T18:57:51.964Z,2.87
2023-03-20T19:02:58.348Z,3.20
2023-03-20T19:08:03.343Z,2.90
2023-03-20T19:13:07.975Z,4.23
2023-03-20T19:18:21.088Z,5.00
2023-03-20T19:23:29.163Z,3.57
2023-03-20T19:28:40.666Z,3.83
2023-03-20T19:33:45.700Z,3.20
2023-03-20T19:38:48.798Z,16.83
2023-03-20T19:43:54.016Z,12.93
2023-03-20T19:49:00.089Z,11.47
2023-03-20T19:54:03.451Z,5.97
2023-03-20T19:59:06.820Z,3.87
2023-03-20T20:04:11.317Z,6.53
2023-03-20T20:09:15.199Z,4.87
2023-03-20T20:14:23.557Z,7.00
2023-03-20T20:19:28.629Z,8.00
2023-03-20T20:24:31.852Z,7.50
2023-03-20T20:29:35.090Z,6.50
2023-03-20T20:40:04.676Z,6.33
2023-03-20T20:45:09.696Z,8.50
2023-03-20T20:50:15.389Z,7.30
2023-03-20T20:55:24.013Z,6.60
2023-03-20T21:00:45.351Z,6.33
2023-03-20T21:05:52.511Z,5.90
2023-03-20T21:10:55.675Z,5.87
2023-03-20T21:16:00.089Z,5.33
2023-03-20T21:21:08.776Z,5.57
2023-03-20T21:26:11.880Z,7.00
2023-03-20T21:31:27.312Z,4.50
2023-03-20T21:36:32.490Z,4.93
2023-03-20T21:41:35.989Z,4.70
2023-03-20T21:52:49.878Z,4.43
2023-03-20T21:58:10.455Z,4.73
2023-03-20T22:02:50.297Z,4.47
2023-03-20T22:09:00.412Z,4.53
2023-03-20T22:14:17.569Z,4.30
2023-03-20T22:24:59.587Z,4.30
2023-03-20T22:30:07.222Z,3.93
2023-03-20T22:45:52.668Z,4.13
2023-03-20T22:51:02.953Z,5.30
2023-03-20T22:56:08.349Z,3.83
2023-03-20T23:01:12.249Z,3.87
2023-03-20T23:06:21.142Z,4.17
2023-03-20T23:11:26.661Z,4.40
2023-03-20T23:16:29.801Z,4.20
2023-03-20T23:21:32.960Z,5.60
2023-03-20T23:26:37.415Z,7.10
2023-03-20T23:31:40.688Z,5.23
2023-03-20T23:36:43.807Z,5.17
2023-03-20T23:47:20.154Z,4.00
2023-03-20T23:52:24.235Z,4.40
2023-03-20T23:57:28.711Z,4.23
